sensor_id;sensor_type;location;lat;lon;timestamp;pressure;altitude;pressure_sealevel;temperature;humidity
61345;BME280;47216;42.656;23.232;2024-02-23T00:01:23;93590.34;;;6.29;64.86
61345;BME280;47216;42.656;23.232;2024-02-23T00:03:50;93591.09;;;6.42;65.16
61345;BME280;47216;42.656;23.232;2024-02-23T00:06:17;93591.78;;;6.37;65.08
61345;BME280;47216;42.656;23.232;2024-02-23T00:08:44;93604.63;;;6.20;65.57
61345;BME280;47216;42.656;23.232;2024-02-23T00:11:12;93595.97;;;6.26;65.52
61345;BME280;47216;42.656;23.232;2024-02-23T00:13:39;93587.28;;;6.32;65.35
61345;BME280;47216;42.656;23.232;2024-02-23T00:16:06;93609.34;;;6.23;65.05
61345;BME280;47216;42.656;23.232;2024-02-23T00:18:33;93587.38;;;6.38;64.85
61345;BME280;47216;42.656;23.232;2024-02-23T00:20:59;93594.75;;;6.17;65.44
61345;BME280;47216;42.656;23.232;2024-02-23T00:23:26;93599.13;;;6.28;65.30
61345;BME280;47216;42.656;23.232;2024-02-23T00:25:54;93600.69;;;6.29;64.96
61345;BME280;47216;42.656;23.232;2024-02-23T00:28:22;93590.44;;;6.35;65.36
61345;BME280;47216;42.656;23.232;2024-02-23T00:30:49;93584.00;;;6.49;65.07
61345;BME280;47216;42.656;23.232;2024-02-23T00:33:16;93596.59;;;6.57;64.77
61345;BME280;47216;42.656;23.232;2024-02-23T00:35:43;93599.75;;;6.59;64.35
61345;BME280;47216;42.656;23.232;2024-02-23T00:38:09;93589.81;;;6.56;63.97
61345;BME280;47216;42.656;23.232;2024-02-23T00:40:36;93580.06;;;6.35;64.71
61345;BME280;47216;42.656;23.232;2024-02-23T00:43:03;93583.44;;;6.47;64.69
61345;BME280;47216;42.656;23.232;2024-02-23T00:45:32;93586.47;;;6.44;64.90
61345;BME280;47216;42.656;23.232;2024-02-23T00:47:59;93584.91;;;6.43;64.85
61345;BME280;47216;42.656;23.232;2024-02-23T00:50:26;93583.56;;;6.52;65.22
61345;BME280;47216;42.656;23.232;2024-02-23T00:52:53;93579.47;;;6.56;65.10
61345;BME280;47216;42.656;23.232;2024-02-23T00:55:20;93574.28;;;6.56;64.70
61345;BME280;47216;42.656;23.232;2024-02-23T00:57:47;93575.66;;;6.47;64.45
61345;BME280;47216;42.656;23.232;2024-02-23T01:00:14;93570.59;;;6.52;64.88
61345;BME280;47216;42.656;23.232;2024-02-23T01:02:42;93540.97;;;6.60;64.24
61345;BME280;47216;42.656;23.232;2024-02-23T01:05:09;93567.34;;;6.45;64.26
61345;BME280;47216;42.656;23.232;2024-02-23T01:07:36;93559.72;;;6.38;65.00
61345;BME280;47216;42.656;23.232;2024-02-23T01:10:03;93554.72;;;6.48;64.44
61345;BME280;47216;42.656;23.232;2024-02-23T01:12:30;93558.91;;;6.49;64.19
61345;BME280;47216;42.656;23.232;2024-02-23T01:14:57;93558.09;;;6.49;64.39
61345;BME280;47216;42.656;23.232;2024-02-23T01:17:24;93545.50;;;6.41;64.13
61345;BME280;47216;42.656;23.232;2024-02-23T01:19:52;93556.81;;;6.11;65.74
61345;BME280;47216;42.656;23.232;2024-02-23T01:22:18;93553.31;;;6.17;65.49
61345;BME280;47216;42.656;23.232;2024-02-23T01:24:45;93546.53;;;6.28;65.30
61345;BME280;47216;42.656;23.232;2024-02-23T01:27:12;93567.91;;;6.35;64.78
61345;BME280;47216;42.656;23.232;2024-02-23T01:29:39;93547.66;;;6.32;64.89
61345;BME280;47216;42.656;23.232;2024-02-23T01:32:06;93548.38;;;6.16;65.43
61345;BME280;47216;42.656;23.232;2024-02-23T01:34:33;93552.88;;;6.08;65.91
61345;BME280;47216;42.656;23.232;2024-02-23T01:37:01;93537.34;;;5.97;65.83
61345;BME280;47216;42.656;23.232;2024-02-23T01:39:28;93538.44;;;5.89;65.91
61345;BME280;47216;42.656;23.232;2024-02-23T01:41:55;93546.66;;;5.86;66.55
61345;BME280;47216;42.656;23.232;2024-02-23T01:44:25;93521.84;;;5.97;66.54
61345;BME280;47216;42.656;23.232;2024-02-23T01:46:51;93541.19;;;6.06;66.22
61345;BME280;47216;42.656;23.232;2024-02-23T01:49:20;93541.38;;;5.93;66.33
61345;BME280;47216;42.656;23.232;2024-02-23T01:51:47;93531.34;;;5.84;66.60
61345;BME280;47216;42.656;23.232;2024-02-23T01:54:16;93536.78;;;5.95;65.96
61345;BME280;47216;42.656;23.232;2024-02-23T01:56:43;93525.66;;;5.94;66.38
61345;BME280;47216;42.656;23.232;2024-02-23T01:59:10;93522.81;;;5.96;65.81
61345;BME280;47216;42.656;23.232;2024-02-23T02:01:38;93534.50;;;5.86;65.90
61345;BME280;47216;42.656;23.232;2024-02-23T02:04:05;93511.34;;;5.92;65.87
61345;BME280;47216;42.656;23.232;2024-02-23T02:06:32;93506.38;;;5.90;65.74
61345;BME280;47216;42.656;23.232;2024-02-23T02:08:59;93517.41;;;5.85;65.86
61345;BME280;47216;42.656;23.232;2024-02-23T02:11:27;93514.06;;;5.97;65.36
61345;BME280;47216;42.656;23.232;2024-02-23T02:13:54;93521.38;;;6.00;65.58
61345;BME280;47216;42.656;23.232;2024-02-23T02:16:20;93505.38;;;6.15;65.71
61345;BME280;47216;42.656;23.232;2024-02-23T02:18:47;93524.03;;;6.17;65.29
61345;BME280;47216;42.656;23.232;2024-02-23T02:21:14;93516.94;;;6.12;65.32
61345;BME280;47216;42.656;23.232;2024-02-23T02:23:42;93515.84;;;6.08;65.28
61345;BME280;47216;42.656;23.232;2024-02-23T02:26:09;93529.22;;;6.05;65.31
61345;BME280;47216;42.656;23.232;2024-02-23T02:28:37;93511.59;;;6.02;65.44
61345;BME280;47216;42.656;23.232;2024-02-23T02:31:06;93525.41;;;5.84;65.21
61345;BME280;47216;42.656;23.232;2024-02-23T02:33:33;93523.38;;;5.86;66.04
61345;BME280;47216;42.656;23.232;2024-02-23T02:36:00;93516.53;;;5.92;65.97
61345;BME280;47216;42.656;23.232;2024-02-23T02:38:27;93517.53;;;5.79;65.81
61345;BME280;47216;42.656;23.232;2024-02-23T02:40:54;93521.69;;;5.68;65.82
61345;BME280;47216;42.656;23.232;2024-02-23T02:43:20;93514.72;;;5.68;66.11
61345;BME280;47216;42.656;23.232;2024-02-23T02:45:49;93526.06;;;5.56;66.45
61345;BME280;47216;42.656;23.232;2024-02-23T02:48:15;93536.72;;;5.47;66.96
61345;BME280;47216;42.656;23.232;2024-02-23T02:50:42;93517.84;;;5.47;66.62
61345;BME280;47216;42.656;23.232;2024-02-23T02:53:09;93525.72;;;5.40;67.03
61345;BME280;47216;42.656;23.232;2024-02-23T02:55:36;93517.50;;;5.20;67.83
61345;BME280;47216;42.656;23.232;2024-02-23T02:58:03;93519.84;;;5.21;68.26
61345;BME280;47216;42.656;23.232;2024-02-23T03:00:30;93533.88;;;5.14;68.09
61345;BME280;47216;42.656;23.232;2024-02-23T03:02:59;93530.84;;;5.17;68.20
61345;BME280;47216;42.656;23.232;2024-02-23T03:05:25;93521.19;;;5.24;67.83
61345;BME280;47216;42.656;23.232;2024-02-23T03:07:52;93528.63;;;5.32;68.18
61345;BME280;47216;42.656;23.232;2024-02-23T03:10:19;93533.59;;;5.45;67.51
61345;BME280;47216;42.656;23.232;2024-02-23T03:12:46;93524.47;;;5.43;67.63
61345;BME280;47216;42.656;23.232;2024-02-23T03:15:13;93532.59;;;5.58;66.95
61345;BME280;47216;42.656;23.232;2024-02-23T03:17:40;93527.09;;;5.55;66.82
61345;BME280;47216;42.656;23.232;2024-02-23T03:20:11;93529.63;;;5.43;67.19
61345;BME280;47216;42.656;23.232;2024-02-23T03:22:38;93534.13;;;5.36;67.33
61345;BME280;47216;42.656;23.232;2024-02-23T03:25:05;93538.78;;;5.45;67.78
61345;BME280;47216;42.656;23.232;2024-02-23T03:27:36;93538.31;;;5.48;67.21
61345;BME280;47216;42.656;23.232;2024-02-23T03:30:03;93531.13;;;5.51;67.13
61345;BME280;47216;42.656;23.232;2024-02-23T03:32:30;93527.72;;;5.38;67.69
61345;BME280;47216;42.656;23.232;2024-02-23T03:35:02;93526.16;;;5.37;67.84
61345;BME280;47216;42.656;23.232;2024-02-23T03:37:30;93528.97;;;5.36;67.87
61345;BME280;47216;42.656;23.232;2024-02-23T03:39:57;93519.19;;;5.38;67.69
61345;BME280;47216;42.656;23.232;2024-02-23T03:42:25;93534.13;;;5.36;68.08
61345;BME280;47216;42.656;23.232;2024-02-23T03:44:51;93524.69;;;5.30;67.92
61345;BME280;47216;42.656;23.232;2024-02-23T03:47:18;93528.84;;;5.42;68.27
61345;BME280;47216;42.656;23.232;2024-02-23T03:49:45;93497.84;;;5.42;67.72
61345;BME280;47216;42.656;23.232;2024-02-23T03:52:12;93516.59;;;5.26;68.38
61345;BME280;47216;42.656;23.232;2024-02-23T03:54:40;93517.38;;;5.38;68.10
61345;BME280;47216;42.656;23.232;2024-02-23T03:57:07;93528.44;;;5.45;67.64
61345;BME280;47216;42.656;23.232;2024-02-23T03:59:35;93522.91;;;5.54;67.69
61345;BME280;47216;42.656;23.232;2024-02-23T04:02:02;93514.69;;;5.57;67.69
61345;BME280;47216;42.656;23.232;2024-02-23T04:04:29;93532.00;;;5.44;67.70
61345;BME280;47216;42.656;23.232;2024-02-23T04:06:56;93534.38;;;5.34;68.03
61345;BME280;47216;42.656;23.232;2024-02-23T04:09:23;93534.47;;;5.39;68.21
61345;BME280;47216;42.656;23.232;2024-02-23T04:11:51;93545.03;;;5.26;68.33
61345;BME280;47216;42.656;23.232;2024-02-23T04:14:18;93521.00;;;5.37;68.43
61345;BME280;47216;42.656;23.232;2024-02-23T04:16:45;93536.56;;;5.19;68.73
61345;BME280;47216;42.656;23.232;2024-02-23T04:19:12;93536.94;;;5.22;68.96
61345;BME280;47216;42.656;23.232;2024-02-23T04:21:39;93544.34;;;5.19;68.91
61345;BME280;47216;42.656;23.232;2024-02-23T04:24:06;93548.72;;;5.18;68.87
61345;BME280;47216;42.656;23.232;2024-02-23T04:26:34;93517.28;;;5.33;68.54
61345;BME280;47216;42.656;23.232;2024-02-23T04:29:02;93537.50;;;5.24;68.44
61345;BME280;47216;42.656;23.232;2024-02-23T04:31:29;93539.94;;;5.19;68.90
61345;BME280;47216;42.656;23.232;2024-02-23T04:33:55;93527.28;;;5.30;68.94
61345;BME280;47216;42.656;23.232;2024-02-23T04:36:22;93538.41;;;5.30;68.87
61345;BME280;47216;42.656;23.232;2024-02-23T04:38:49;93538.63;;;5.29;68.28
61345;BME280;47216;42.656;23.232;2024-02-23T04:41:20;93529.50;;;5.14;68.76
61345;BME280;47216;42.656;23.232;2024-02-23T04:43:48;93538.47;;;5.12;68.95
61345;BME280;47216;42.656;23.232;2024-02-23T04:46:16;93542.50;;;5.08;68.87
61345;BME280;47216;42.656;23.232;2024-02-23T04:48:43;93541.63;;;5.14;68.74
61345;BME280;47216;42.656;23.232;2024-02-23T04:51:10;93537.13;;;5.09;68.51
61345;BME280;47216;42.656;23.232;2024-02-23T04:53:37;93538.22;;;5.01;69.11
61345;BME280;47216;42.656;23.232;2024-02-23T04:56:04;93551.53;;;4.87;69.34
61345;BME280;47216;42.656;23.232;2024-02-23T04:58:31;93545.13;;;4.89;68.85
61345;BME280;47216;42.656;23.232;2024-02-23T05:00:58;93548.47;;;4.78;69.55
61345;BME280;47216;42.656;23.232;2024-02-23T05:03:26;93553.63;;;4.78;69.10
61345;BME280;47216;42.656;23.232;2024-02-23T05:05:53;93553.34;;;4.86;69.18
61345;BME280;47216;42.656;23.232;2024-02-23T05:08:20;93561.88;;;4.87;69.10
61345;BME280;47216;42.656;23.232;2024-02-23T05:10:47;93570.44;;;4.69;69.09
61345;BME280;47216;42.656;23.232;2024-02-23T05:13:13;93549.13;;;4.73;69.06
61345;BME280;47216;42.656;23.232;2024-02-23T05:15:40;93581.28;;;4.59;69.59
61345;BME280;47216;42.656;23.232;2024-02-23T05:18:07;93563.41;;;4.57;69.52
61345;BME280;47216;42.656;23.232;2024-02-23T05:20:35;93577.22;;;4.33;69.96
61345;BME280;47216;42.656;23.232;2024-02-23T05:23:02;93571.09;;;4.46;71.04
61345;BME280;47216;42.656;23.232;2024-02-23T05:25:29;93571.03;;;4.52;70.05
61345;BME280;47216;42.656;23.232;2024-02-23T05:27:56;93587.41;;;4.46;70.53
61345;BME280;47216;42.656;23.232;2024-02-23T05:30:23;93577.34;;;4.56;69.74
61345;BME280;47216;42.656;23.232;2024-02-23T05:32:50;93581.34;;;4.52;70.34
61345;BME280;47216;42.656;23.232;2024-02-23T05:35:17;93552.31;;;4.57;69.62
61345;BME280;47216;42.656;23.232;2024-02-23T05:37:45;93574.03;;;4.49;70.23
61345;BME280;47216;42.656;23.232;2024-02-23T05:40:12;93590.75;;;4.47;69.76
61345;BME280;47216;42.656;23.232;2024-02-23T05:42:39;93551.06;;;4.59;70.46
61345;BME280;47216;42.656;23.232;2024-02-23T05:45:07;93588.53;;;4.50;70.56
61345;BME280;47216;42.656;23.232;2024-02-23T05:47:35;93584.50;;;4.54;70.42
61345;BME280;47216;42.656;23.232;2024-02-23T05:50:02;93582.22;;;4.65;70.23
61345;BME280;47216;42.656;23.232;2024-02-23T05:52:29;93584.50;;;4.54;70.10
61345;BME280;47216;42.656;23.232;2024-02-23T05:54:57;93587.66;;;4.56;70.08
61345;BME280;47216;42.656;23.232;2024-02-23T05:57:25;93582.34;;;4.70;70.24
61345;BME280;47216;42.656;23.232;2024-02-23T05:59:52;93597.41;;;4.73;70.28
61345;BME280;47216;42.656;23.232;2024-02-23T06:02:19;93600.50;;;4.63;70.81
61345;BME280;47216;42.656;23.232;2024-02-23T06:04:46;93601.59;;;4.74;70.40
61345;BME280;47216;42.656;23.232;2024-02-23T06:07:13;93615.28;;;4.74;70.22
61345;BME280;47216;42.656;23.232;2024-02-23T06:09:41;93590.41;;;4.92;70.12
61345;BME280;47216;42.656;23.232;2024-02-23T06:12:09;93599.50;;;4.94;70.01
61345;BME280;47216;42.656;23.232;2024-02-23T06:14:36;93609.72;;;4.89;69.77
61345;BME280;47216;42.656;23.232;2024-02-23T06:17:03;93605.09;;;5.10;69.75
61345;BME280;47216;42.656;23.232;2024-02-23T06:19:32;93604.25;;;5.28;69.45
61345;BME280;47216;42.656;23.232;2024-02-23T06:21:59;93605.72;;;5.35;68.96
61345;BME280;47216;42.656;23.232;2024-02-23T06:24:25;93602.47;;;5.28;69.00
61345;BME280;47216;42.656;23.232;2024-02-23T06:26:52;93609.19;;;5.29;68.83
61345;BME280;47216;42.656;23.232;2024-02-23T06:29:20;93621.06;;;5.48;69.38
61345;BME280;47216;42.656;23.232;2024-02-23T06:31:47;93609.41;;;5.58;68.39
61345;BME280;47216;42.656;23.232;2024-02-23T06:34:15;93607.19;;;5.73;68.53
61345;BME280;47216;42.656;23.232;2024-02-23T06:36:41;93612.03;;;5.93;67.92
61345;BME280;47216;42.656;23.232;2024-02-23T06:39:08;93614.31;;;6.01;67.74
61345;BME280;47216;42.656;23.232;2024-02-23T06:41:47;93607.69;;;6.17;67.34
61345;BME280;47216;42.656;23.232;2024-02-23T06:44:14;93611.03;;;6.29;66.98
61345;BME280;47216;42.656;23.232;2024-02-23T06:46:42;93606.44;;;6.84;78.34
61345;BME280;47216;42.656;23.232;2024-02-23T06:49:09;93618.13;;;7.72;76.61
61345;BME280;47216;42.656;23.232;2024-02-23T06:51:36;93603.66;;;7.60;67.68
61345;BME280;47216;42.656;23.232;2024-02-23T06:54:03;93606.66;;;7.68;65.22
61345;BME280;47216;42.656;23.232;2024-02-23T06:56:30;93603.56;;;7.71;64.32
61345;BME280;47216;42.656;23.232;2024-02-23T06:58:57;93609.16;;;7.63;63.95
61345;BME280;47216;42.656;23.232;2024-02-23T07:01:23;93607.84;;;7.61;64.63
61345;BME280;47216;42.656;23.232;2024-02-23T07:03:52;93604.13;;;7.56;63.14
61345;BME280;47216;42.656;23.232;2024-02-23T07:06:19;93605.63;;;7.69;63.96
61345;BME280;47216;42.656;23.232;2024-02-23T07:08:46;93608.47;;;7.68;63.67
61345;BME280;47216;42.656;23.232;2024-02-23T07:11:13;93618.44;;;7.76;63.00
61345;BME280;47216;42.656;23.232;2024-02-23T07:13:42;93615.47;;;7.84;62.59
61345;BME280;47216;42.656;23.232;2024-02-23T07:16:09;93614.59;;;7.95;61.68
61345;BME280;47216;42.656;23.232;2024-02-23T07:18:36;93616.00;;;8.03;61.95
61345;BME280;47216;42.656;23.232;2024-02-23T07:21:05;93606.97;;;8.06;61.51
61345;BME280;47216;42.656;23.232;2024-02-23T07:23:31;93612.69;;;8.08;61.55
61345;BME280;47216;42.656;23.232;2024-02-23T07:25:58;93604.44;;;8.11;62.00
61345;BME280;47216;42.656;23.232;2024-02-23T07:28:25;93615.53;;;8.23;60.49
61345;BME280;47216;42.656;23.232;2024-02-23T07:30:52;93602.22;;;8.36;59.84
61345;BME280;47216;42.656;23.232;2024-02-23T07:33:19;93600.13;;;8.38;60.06
61345;BME280;47216;42.656;23.232;2024-02-23T07:35:46;93602.91;;;8.49;60.09
61345;BME280;47216;42.656;23.232;2024-02-23T07:38:14;93608.66;;;8.51;59.34
61345;BME280;47216;42.656;23.232;2024-02-23T07:40:43;93602.97;;;8.54;58.97
61345;BME280;47216;42.656;23.232;2024-02-23T07:43:10;93618.69;;;8.64;59.88
61345;BME280;47216;42.656;23.232;2024-02-23T07:45:37;93602.63;;;8.67;59.82
61345;BME280;47216;42.656;23.232;2024-02-23T07:48:04;93612.69;;;8.80;58.83
61345;BME280;47216;42.656;23.232;2024-02-23T07:50:31;93607.59;;;8.91;58.79
61345;BME280;47216;42.656;23.232;2024-02-23T07:52:58;93609.16;;;8.92;58.27
61345;BME280;47216;42.656;23.232;2024-02-23T07:55:26;93608.75;;;9.00;58.10
61345;BME280;47216;42.656;23.232;2024-02-23T07:57:53;93598.03;;;8.96;58.55
61345;BME280;47216;42.656;23.232;2024-02-23T08:00:22;93595.91;;;8.93;58.90
61345;BME280;47216;42.656;23.232;2024-02-23T08:02:49;93594.47;;;9.02;59.20
61345;BME280;47216;42.656;23.232;2024-02-23T08:05:16;93586.56;;;9.19;58.42
61345;BME280;47216;42.656;23.232;2024-02-23T08:07:43;93588.50;;;9.29;58.03
61345;BME280;47216;42.656;23.232;2024-02-23T08:10:10;93587.22;;;9.32;58.26
61345;BME280;47216;42.656;23.232;2024-02-23T08:12:39;93591.00;;;9.46;57.47
61345;BME280;47216;42.656;23.232;2024-02-23T08:15:07;93581.41;;;9.52;57.64
61345;BME280;47216;42.656;23.232;2024-02-23T08:17:34;93585.09;;;9.56;58.13
61345;BME280;47216;42.656;23.232;2024-02-23T08:20:01;93595.31;;;9.62;57.09
61345;BME280;47216;42.656;23.232;2024-02-23T08:22:27;93585.94;;;9.61;57.76
61345;BME280;47216;42.656;23.232;2024-02-23T08:24:54;93595.69;;;9.76;58.13
61345;BME280;47216;42.656;23.232;2024-02-23T08:27:21;93601.50;;;9.88;57.32
61345;BME280;47216;42.656;23.232;2024-02-23T08:29:49;93596.97;;;10.06;60.64
61345;BME280;47216;42.656;23.232;2024-02-23T08:32:16;93588.56;;;10.31;58.41
61345;BME280;47216;42.656;23.232;2024-02-23T08:34:44;93594.34;;;10.38;58.24
61345;BME280;47216;42.656;23.232;2024-02-23T08:37:11;93598.81;;;10.48;57.38
61345;BME280;47216;42.656;23.232;2024-02-23T08:39:37;93581.44;;;10.64;58.24
61345;BME280;47216;42.656;23.232;2024-02-23T08:42:04;93602.31;;;10.69;56.91
61345;BME280;47216;42.656;23.232;2024-02-23T08:44:31;93580.97;;;10.77;55.98
61345;BME280;47216;42.656;23.232;2024-02-23T08:46:59;93584.66;;;10.86;59.10
61345;BME280;47216;42.656;23.232;2024-02-23T08:49:27;93573.72;;;10.89;56.10
61345;BME280;47216;42.656;23.232;2024-02-23T08:51:54;93589.38;;;10.94;55.64
61345;BME280;47216;42.656;23.232;2024-02-23T08:54:22;93584.44;;;11.03;55.39
61345;BME280;47216;42.656;23.232;2024-02-23T08:56:48;93584.22;;;11.10;55.47
61345;BME280;47216;42.656;23.232;2024-02-23T08:59:15;93581.38;;;11.22;55.22
61345;BME280;47216;42.656;23.232;2024-02-23T09:01:44;93584.78;;;11.27;55.29
61345;BME280;47216;42.656;23.232;2024-02-23T09:04:13;93573.06;;;11.30;55.28
61345;BME280;47216;42.656;23.232;2024-02-23T09:06:40;93582.69;;;11.29;55.36
61345;BME280;47216;42.656;23.232;2024-02-23T09:09:07;93580.13;;;11.45;54.98
61345;BME280;47216;42.656;23.232;2024-02-23T09:11:35;93576.47;;;11.56;54.81
61345;BME280;47216;42.656;23.232;2024-02-23T09:14:02;93575.69;;;11.66;53.93
61345;BME280;47216;42.656;23.232;2024-02-23T09:16:29;93582.22;;;11.73;53.32
61345;BME280;47216;42.656;23.232;2024-02-23T09:18:56;93587.19;;;11.75;53.39
61345;BME280;47216;42.656;23.232;2024-02-23T09:21:24;93581.72;;;11.87;53.49
61345;BME280;47216;42.656;23.232;2024-02-23T09:23:51;93573.91;;;11.92;53.42
61345;BME280;47216;42.656;23.232;2024-02-23T09:26:18;93579.63;;;11.99;53.12
61345;BME280;47216;42.656;23.232;2024-02-23T09:28:44;93563.19;;;12.14;52.48
61345;BME280;47216;42.656;23.232;2024-02-23T09:31:11;93561.84;;;12.27;51.75
61345;BME280;47216;42.656;23.232;2024-02-23T09:33:38;93563.38;;;12.38;52.77
61345;BME280;47216;42.656;23.232;2024-02-23T09:36:05;93565.44;;;12.56;52.25
61345;BME280;47216;42.656;23.232;2024-02-23T09:38:33;93576.91;;;12.71;51.82
61345;BME280;47216;42.656;23.232;2024-02-23T09:41:01;93576.91;;;12.71;51.10
61345;BME280;47216;42.656;23.232;2024-02-23T09:43:29;93576.34;;;12.79;51.26
61345;BME280;47216;42.656;23.232;2024-02-23T09:45:57;93580.53;;;12.85;50.93
61345;BME280;47216;42.656;23.232;2024-02-23T09:48:25;93557.19;;;12.94;50.90
61345;BME280;47216;42.656;23.232;2024-02-23T09:50:52;93562.19;;;12.90;49.96
61345;BME280;47216;42.656;23.232;2024-02-23T09:53:19;93558.31;;;12.82;50.93
61345;BME280;47216;42.656;23.232;2024-02-23T09:55:50;93544.88;;;12.99;50.64
61345;BME280;47216;42.656;23.232;2024-02-23T09:58:18;93568.09;;;13.11;50.08
61345;BME280;47216;42.656;23.232;2024-02-23T10:00:46;93549.44;;;13.23;49.20
61345;BME280;47216;42.656;23.232;2024-02-23T10:03:13;93541.59;;;13.23;49.29
61345;BME280;47216;42.656;23.232;2024-02-23T10:05:40;93544.78;;;13.20;48.84
61345;BME280;47216;42.656;23.232;2024-02-23T10:08:07;93555.72;;;13.27;50.37
61345;BME280;47216;42.656;23.232;2024-02-23T10:10:35;93545.19;;;13.37;48.69
61345;BME280;47216;42.656;23.232;2024-02-23T10:13:03;93541.06;;;13.31;48.75
61345;BME280;47216;42.656;23.232;2024-02-23T10:15:30;93572.69;;;13.45;48.48
61345;BME280;47216;42.656;23.232;2024-02-23T10:17:57;93562.47;;;13.43;48.20
61345;BME280;47216;42.656;23.232;2024-02-23T10:20:24;93547.28;;;13.40;48.21
61345;BME280;47216;42.656;23.232;2024-02-23T10:22:51;93540.72;;;13.43;47.43
61345;BME280;47216;42.656;23.232;2024-02-23T10:25:19;93545.25;;;13.32;47.79
61345;BME280;47216;42.656;23.232;2024-02-23T10:27:46;93542.56;;;13.42;47.70
61345;BME280;47216;42.656;23.232;2024-02-23T10:30:14;93555.56;;;13.58;47.46
61345;BME280;47216;42.656;23.232;2024-02-23T10:32:41;93535.41;;;13.53;47.77
61345;BME280;47216;42.656;23.232;2024-02-23T10:35:13;93530.84;;;13.69;48.77
61345;BME280;47216;42.656;23.232;2024-02-23T10:37:42;93511.88;;;13.82;47.76
61345;BME280;47216;42.656;23.232;2024-02-23T10:40:11;93511.06;;;13.87;48.02
61345;BME280;47216;42.656;23.232;2024-02-23T10:42:39;93504.97;;;13.92;47.31
61345;BME280;47216;42.656;23.232;2024-02-23T10:45:08;93529.16;;;14.13;47.14
61345;BME280;47216;42.656;23.232;2024-02-23T10:47:37;93533.97;;;14.05;46.66
61345;BME280;47216;42.656;23.232;2024-02-23T10:50:06;93513.44;;;14.13;46.66
61345;BME280;47216;42.656;23.232;2024-02-23T10:52:33;93521.56;;;14.11;47.07
61345;BME280;47216;42.656;23.232;2024-02-23T10:55:01;93504.28;;;14.10;46.99
61345;BME280;47216;42.656;23.232;2024-02-23T10:57:30;93483.97;;;14.21;46.96
61345;BME280;47216;42.656;23.232;2024-02-23T10:59:58;93483.88;;;14.31;47.50
61345;BME280;47216;42.656;23.232;2024-02-23T11:02:27;93485.72;;;14.31;45.74
61345;BME280;47216;42.656;23.232;2024-02-23T11:04:59;93479.84;;;14.39;45.60
61345;BME280;47216;42.656;23.232;2024-02-23T11:07:26;93484.44;;;14.52;45.34
61345;BME280;47216;42.656;23.232;2024-02-23T11:09:53;93485.19;;;14.53;45.36
61345;BME280;47216;42.656;23.232;2024-02-23T11:12:24;93469.41;;;14.58;45.64
61345;BME280;47216;42.656;23.232;2024-02-23T11:14:51;93470.81;;;14.50;45.93
61345;BME280;47216;42.656;23.232;2024-02-23T11:17:19;93469.16;;;14.59;46.40
61345;BME280;47216;42.656;23.232;2024-02-23T11:19:49;93460.59;;;14.48;44.40
61345;BME280;47216;42.656;23.232;2024-02-23T11:22:23;93457.66;;;14.55;44.93
61345;BME280;47216;42.656;23.232;2024-02-23T11:24:51;93468.03;;;14.65;45.51
61345;BME280;47216;42.656;23.232;2024-02-23T11:27:18;93478.97;;;14.73;44.67
61345;BME280;47216;42.656;23.232;2024-02-23T11:29:46;93452.16;;;14.76;43.86
61345;BME280;47216;42.656;23.232;2024-02-23T11:32:14;93442.50;;;14.71;44.37
61345;BME280;47216;42.656;23.232;2024-02-23T11:34:42;93456.19;;;14.68;44.35
61345;BME280;47216;42.656;23.232;2024-02-23T11:37:12;93438.88;;;14.67;43.82
61345;BME280;47216;42.656;23.232;2024-02-23T11:39:40;93458.59;;;14.64;44.82
61345;BME280;47216;42.656;23.232;2024-02-23T11:42:07;93442.34;;;14.62;45.30
61345;BME280;47216;42.656;23.232;2024-02-23T11:44:34;93448.81;;;14.46;44.80
61345;BME280;47216;42.656;23.232;2024-02-23T11:47:02;93450.94;;;14.44;45.57
61345;BME280;47216;42.656;23.232;2024-02-23T11:49:30;93442.91;;;14.59;44.78
61345;BME280;47216;42.656;23.232;2024-02-23T11:51:57;93463.97;;;14.54;44.84
61345;BME280;47216;42.656;23.232;2024-02-23T11:54:24;93432.41;;;14.59;45.78
61345;BME280;47216;42.656;23.232;2024-02-23T11:56:52;93442.91;;;14.59;43.94
61345;BME280;47216;42.656;23.232;2024-02-23T11:59:19;93431.84;;;14.62;44.68
61345;BME280;47216;42.656;23.232;2024-02-23T12:01:47;93439.38;;;14.45;44.29
61345;BME280;47216;42.656;23.232;2024-02-23T12:04:14;93416.16;;;14.57;44.64
61345;BME280;47216;42.656;23.232;2024-02-23T12:06:42;93426.81;;;14.66;44.62
61345;BME280;47216;42.656;23.232;2024-02-23T12:09:09;93410.03;;;14.86;45.33
61345;BME280;47216;42.656;23.232;2024-02-23T12:11:36;93408.31;;;14.95;44.37
61345;BME280;47216;42.656;23.232;2024-02-23T12:14:05;93427.53;;;15.09;43.72
61345;BME280;47216;42.656;23.232;2024-02-23T12:16:33;93411.88;;;15.04;43.08
61345;BME280;47216;42.656;23.232;2024-02-23T12:19:03;93417.16;;;14.99;43.44
61345;BME280;47216;42.656;23.232;2024-02-23T12:21:34;93416.44;;;15.12;43.78
61345;BME280;47216;42.656;23.232;2024-02-23T12:24:04;93406.22;;;15.11;42.66
61345;BME280;47216;42.656;23.232;2024-02-23T12:26:31;93406.59;;;15.04;42.52
61345;BME280;47216;42.656;23.232;2024-02-23T12:29:00;93396.53;;;15.11;42.22
61345;BME280;47216;42.656;23.232;2024-02-23T12:31:31;93401.19;;;15.15;42.35
61345;BME280;47216;42.656;23.232;2024-02-23T12:33:58;93400.19;;;15.10;42.68
61345;BME280;47216;42.656;23.232;2024-02-23T12:36:25;93388.56;;;15.17;41.84
61345;BME280;47216;42.656;23.232;2024-02-23T12:38:52;93410.19;;;15.27;42.38
61345;BME280;47216;42.656;23.232;2024-02-23T12:41:21;93395.44;;;15.45;42.93
61345;BME280;47216;42.656;23.232;2024-02-23T12:43:48;93421.03;;;15.40;41.70
61345;BME280;47216;42.656;23.232;2024-02-23T12:46:15;93369.75;;;15.42;41.43
61345;BME280;47216;42.656;23.232;2024-02-23T12:48:44;93370.75;;;15.60;41.73
61345;BME280;47216;42.656;23.232;2024-02-23T12:51:10;93383.84;;;15.79;41.41
61345;BME280;47216;42.656;23.232;2024-02-23T12:53:38;93371.00;;;15.91;41.65
61345;BME280;47216;42.656;23.232;2024-02-23T12:56:07;93382.22;;;15.83;41.86
61345;BME280;47216;42.656;23.232;2024-02-23T12:58:35;93407.91;;;15.86;41.62